sensor_id;sensor_type;location;lat;lon;timestamp;P1;durP1;ratioP1;P2;durP2;ratioP2
6372;SDS011;3219;51.362;7.074;2022-08-07T00:01:11;3.42;;;1.88;;
6372;SDS011;3219;51.362;7.074;2022-08-07T00:03:38;3.17;;;1.52;;
6372;SDS011;3219;51.362;7.074;2022-08-07T00:06:06;2.50;;;1.98;;
6372;SDS011;3219;51.362;7.074;2022-08-07T00:08:33;2.33;;;1.77;;
6372;SDS011;3219;51.362;7.074;2022-08-07T00:11:01;4.57;;;1.90;;
6372;SDS011;3219;51.362;7.074;2022-08-07T00:13:29;3.83;;;1.73;;
6372;SDS011;3219;51.362;7.074;2022-08-07T00:15:57;4.28;;;1.60;;
6372;SDS011;3219;51.362;7.074;2022-08-07T00:18:26;3.40;;;1.95;;
6372;SDS011;3219;51.362;7.074;2022-08-07T00:20:53;6.88;;;1.55;;
6372;SDS011;3219;51.362;7.074;2022-08-07T00:23:21;2.58;;;1.50;;
6372;SDS011;3219;51.362;7.074;2022-08-07T00:25:48;4.22;;;1.52;;
6372;SDS011;3219;51.362;7.074;2022-08-07T00:28:15;4.63;;;1.67;;
6372;SDS011;3219;51.362;7.074;2022-08-07T00:30:42;2.83;;;1.65;;
6372;SDS011;3219;51.362;7.074;2022-08-07T00:33:11;6.13;;;1.60;;
6372;SDS011;3219;51.362;7.074;2022-08-07T00:35:38;3.58;;;1.60;;
6372;SDS011;3219;51.362;7.074;2022-08-07T00:38:05;3.22;;;1.50;;
6372;SDS011;3219;51.362;7.074;2022-08-07T00:40:33;4.63;;;1.60;;
6372;SDS011;3219;51.362;7.074;2022-08-07T00:43:00;3.17;;;1.38;;
6372;SDS011;3219;51.362;7.074;2022-08-07T00:45:27;4.20;;;1.73;;
6372;SDS011;3219;51.362;7.074;2022-08-07T00:47:54;3.75;;;1.30;;
6372;SDS011;3219;51.362;7.074;2022-08-07T00:50:23;4.07;;;1.67;;
6372;SDS011;3219;51.362;7.074;2022-08-07T00:52:50;4.38;;;1.83;;
6372;SDS011;3219;51.362;7.074;2022-08-07T00:55:17;3.00;;;1.40;;
6372;SDS011;3219;51.362;7.074;2022-08-07T00:57:44;3.08;;;1.70;;
6372;SDS011;3219;51.362;7.074;2022-08-07T01:00:11;3.65;;;1.20;;
6372;SDS011;3219;51.362;7.074;2022-08-07T01:02:39;3.60;;;2.08;;
6372;SDS011;3219;51.362;7.074;2022-08-07T01:05:08;3.10;;;1.30;;
6372;SDS011;3219;51.362;7.074;2022-08-07T01:07:37;3.35;;;1.40;;
6372;SDS011;3219;51.362;7.074;2022-08-07T01:10:04;2.95;;;1.58;;
6372;SDS011;3219;51.362;7.074;2022-08-07T01:12:32;3.25;;;1.70;;
6372;SDS011;3219;51.362;7.074;2022-08-07T01:14:59;2.75;;;1.38;;
6372;SDS011;3219;51.362;7.074;2022-08-07T01:17:26;3.58;;;1.45;;
6372;SDS011;3219;51.362;7.074;2022-08-07T01:19:55;2.20;;;1.20;;
6372;SDS011;3219;51.362;7.074;2022-08-07T01:22:25;3.38;;;1.40;;
6372;SDS011;3219;51.362;7.074;2022-08-07T01:24:52;2.88;;;1.48;;
6372;SDS011;3219;51.362;7.074;2022-08-07T01:27:19;2.20;;;1.25;;
6372;SDS011;3219;51.362;7.074;2022-08-07T01:29:47;2.72;;;1.30;;
6372;SDS011;3219;51.362;7.074;2022-08-07T01:32:14;3.50;;;1.75;;
6372;SDS011;3219;51.362;7.074;2022-08-07T01:34:41;3.83;;;1.65;;
6372;SDS011;3219;51.362;7.074;2022-08-07T01:37:09;2.05;;;1.40;;
6372;SDS011;3219;51.362;7.074;2022-08-07T01:39:42;3.25;;;1.20;;
6372;SDS011;3219;51.362;7.074;2022-08-07T01:42:11;3.47;;;1.05;;
6372;SDS011;3219;51.362;7.074;2022-08-07T01:44:38;5.43;;;1.60;;
6372;SDS011;3219;51.362;7.074;2022-08-07T01:47:06;5.78;;;1.40;;
6372;SDS011;3219;51.362;7.074;2022-08-07T01:49:34;2.35;;;1.45;;
6372;SDS011;3219;51.362;7.074;2022-08-07T01:52:01;3.40;;;1.30;;
6372;SDS011;3219;51.362;7.074;2022-08-07T01:54:29;2.25;;;1.10;;
6372;SDS011;3219;51.362;7.074;2022-08-07T01:57:00;3.30;;;1.40;;
6372;SDS011;3219;51.362;7.074;2022-08-07T01:59:28;2.90;;;1.48;;
6372;SDS011;3219;51.362;7.074;2022-08-07T02:01:59;1.38;;;1.00;;
6372;SDS011;3219;51.362;7.074;2022-08-07T02:04:29;2.63;;;1.17;;
6372;SDS011;3219;51.362;7.074;2022-08-07T02:06:58;4.60;;;1.17;;
6372;SDS011;3219;51.362;7.074;2022-08-07T02:09:27;1.20;;;1.10;;
6372;SDS011;3219;51.362;7.074;2022-08-07T02:11:55;4.40;;;1.30;;
6372;SDS011;3219;51.362;7.074;2022-08-07T02:14:25;2.88;;;1.40;;
6372;SDS011;3219;51.362;7.074;2022-08-07T02:16:53;2.38;;;1.17;;
6372;SDS011;3219;51.362;7.074;2022-08-07T02:19:20;3.00;;;1.27;;
6372;SDS011;3219;51.362;7.074;2022-08-07T02:21:48;3.30;;;1.30;;
6372;SDS011;3219;51.362;7.074;2022-08-07T02:24:16;2.15;;;1.13;;
6372;SDS011;3219;51.362;7.074;2022-08-07T02:26:43;2.83;;;1.02;;
6372;SDS011;3219;51.362;7.074;2022-08-07T02:29:11;6.95;;;1.40;;
6372;SDS011;3219;51.362;7.074;2022-08-07T02:31:40;3.03;;;1.40;;
6372;SDS011;3219;51.362;7.074;2022-08-07T02:34:07;1.88;;;1.25;;
6372;SDS011;3219;51.362;7.074;2022-08-07T02:36:35;5.78;;;1.35;;
6372;SDS011;3219;51.362;7.074;2022-08-07T02:39:03;2.30;;;1.00;;
6372;SDS011;3219;51.362;7.074;2022-08-07T02:41:30;1.80;;;1.20;;
6372;SDS011;3219;51.362;7.074;2022-08-07T02:43:58;3.15;;;1.10;;
6372;SDS011;3219;51.362;7.074;2022-08-07T02:46:27;2.10;;;1.10;;
6372;SDS011;3219;51.362;7.074;2022-08-07T02:48:57;4.88;;;1.17;;
6372;SDS011;3219;51.362;7.074;2022-08-07T02:51:24;3.88;;;1.25;;
6372;SDS011;3219;51.362;7.074;2022-08-07T02:53:53;3.60;;;1.30;;
6372;SDS011;3219;51.362;7.074;2022-08-07T02:56:21;1.45;;;0.90;;
6372;SDS011;3219;51.362;7.074;2022-08-07T02:58:49;1.83;;;1.00;;
6372;SDS011;3219;51.362;7.074;2022-08-07T03:01:17;3.65;;;1.27;;
6372;SDS011;3219;51.362;7.074;2022-08-07T03:03:45;7.15;;;1.50;;
6372;SDS011;3219;51.362;7.074;2022-08-07T03:06:14;2.53;;;1.08;;
6372;SDS011;3219;51.362;7.074;2022-08-07T03:08:41;1.63;;;1.20;;
6372;SDS011;3219;51.362;7.074;2022-08-07T03:11:09;3.25;;;1.10;;
6372;SDS011;3219;51.362;7.074;2022-08-07T03:13:36;3.47;;;1.30;;
6372;SDS011;3219;51.362;7.074;2022-08-07T03:16:03;3.38;;;1.40;;
6372;SDS011;3219;51.362;7.074;2022-08-07T03:18:30;2.80;;;1.30;;
6372;SDS011;3219;51.362;7.074;2022-08-07T03:20:58;2.45;;;1.20;;
6372;SDS011;3219;51.362;7.074;2022-08-07T03:23:27;2.15;;;1.30;;
6372;SDS011;3219;51.362;7.074;2022-08-07T03:25:54;2.60;;;1.40;;
6372;SDS011;3219;51.362;7.074;2022-08-07T03:28:22;2.28;;;1.50;;
6372;SDS011;3219;51.362;7.074;2022-08-07T03:30:50;4.65;;;1.52;;
6372;SDS011;3219;51.362;7.074;2022-08-07T03:33:38;1.63;;;1.23;;
6372;SDS011;3219;51.362;7.074;2022-08-07T03:36:06;5.00;;;1.20;;
6372;SDS011;3219;51.362;7.074;2022-08-07T03:38:35;1.88;;;1.10;;
6372;SDS011;3219;51.362;7.074;2022-08-07T03:41:03;5.20;;;1.40;;
6372;SDS011;3219;51.362;7.074;2022-08-07T03:43:31;4.85;;;1.30;;
6372;SDS011;3219;51.362;7.074;2022-08-07T03:45:59;6.05;;;1.10;;
6372;SDS011;3219;51.362;7.074;2022-08-07T03:48:27;2.83;;;1.30;;
6372;SDS011;3219;51.362;7.074;2022-08-07T03:50:54;2.90;;;1.10;;
6372;SDS011;3219;51.362;7.074;2022-08-07T03:53:22;1.85;;;1.10;;
6372;SDS011;3219;51.362;7.074;2022-08-07T03:55:50;1.40;;;1.00;;
6372;SDS011;3219;51.362;7.074;2022-08-07T03:58:17;4.60;;;1.20;;
6372;SDS011;3219;51.362;7.074;2022-08-07T04:00:46;1.77;;;1.00;;
6372;SDS011;3219;51.362;7.074;2022-08-07T04:03:14;3.10;;;1.20;;
6372;SDS011;3219;51.362;7.074;2022-08-07T04:05:41;2.13;;;1.10;;
6372;SDS011;3219;51.362;7.074;2022-08-07T04:08:09;1.80;;;1.05;;
6372;SDS011;3219;51.362;7.074;2022-08-07T04:10:36;1.35;;;0.90;;
6372;SDS011;3219;51.362;7.074;2022-08-07T04:13:05;2.92;;;1.10;;
6372;SDS011;3219;51.362;7.074;2022-08-07T04:15:32;4.28;;;1.35;;
6372;SDS011;3219;51.362;7.074;2022-08-07T04:18:00;2.08;;;1.00;;
6372;SDS011;3219;51.362;7.074;2022-08-07T04:20:27;4.95;;;1.23;;
6372;SDS011;3219;51.362;7.074;2022-08-07T04:22:54;2.25;;;0.90;;
6372;SDS011;3219;51.362;7.074;2022-08-07T04:25:22;1.52;;;1.10;;
6372;SDS011;3219;51.362;7.074;2022-08-07T04:27:49;2.17;;;1.00;;
6372;SDS011;3219;51.362;7.074;2022-08-07T04:30:17;1.23;;;0.88;;
6372;SDS011;3219;51.362;7.074;2022-08-07T04:32:44;1.48;;;1.00;;
6372;SDS011;3219;51.362;7.074;2022-08-07T04:35:12;4.60;;;1.48;;
6372;SDS011;3219;51.362;7.074;2022-08-07T04:37:39;2.22;;;1.02;;
6372;SDS011;3219;51.362;7.074;2022-08-07T04:40:06;3.20;;;1.40;;
6372;SDS011;3219;51.362;7.074;2022-08-07T04:42:33;4.25;;;1.17;;
6372;SDS011;3219;51.362;7.074;2022-08-07T04:45:01;2.33;;;0.90;;
6372;SDS011;3219;51.362;7.074;2022-08-07T04:47:34;1.70;;;1.00;;
6372;SDS011;3219;51.362;7.074;2022-08-07T04:50:05;1.85;;;0.90;;
6372;SDS011;3219;51.362;7.074;2022-08-07T04:52:35;2.03;;;0.90;;
6372;SDS011;3219;51.362;7.074;2022-08-07T04:55:05;4.05;;;0.90;;
6372;SDS011;3219;51.362;7.074;2022-08-07T05:00:04;1.75;;;0.77;;
6372;SDS011;3219;51.362;7.074;2022-08-07T05:02:34;1.65;;;0.70;;
6372;SDS011;3219;51.362;7.074;2022-08-07T05:05:08;2.13;;;0.73;;
6372;SDS011;3219;51.362;7.074;2022-08-07T05:07:41;0.77;;;0.57;;
6372;SDS011;3219;51.362;7.074;2022-08-07T05:10:11;2.42;;;0.70;;
6372;SDS011;3219;51.362;7.074;2022-08-07T05:12:41;3.28;;;0.70;;
6372;SDS011;3219;51.362;7.074;2022-08-07T05:15:09;1.13;;;0.55;;
6372;SDS011;3219;51.362;7.074;2022-08-07T05:17:45;1.20;;;0.60;;
6372;SDS011;3219;51.362;7.074;2022-08-07T05:20:14;1.25;;;0.55;;
6372;SDS011;3219;51.362;7.074;2022-08-07T05:22:42;7.03;;;0.82;;
6372;SDS011;3219;51.362;7.074;2022-08-07T05:25:10;1.75;;;0.52;;
6372;SDS011;3219;51.362;7.074;2022-08-07T05:27:40;1.55;;;0.32;;
6372;SDS011;3219;51.362;7.074;2022-08-07T05:30:09;4.18;;;1.15;;
6372;SDS011;3219;51.362;7.074;2022-08-07T05:32:36;3.55;;;0.80;;
6372;SDS011;3219;51.362;7.074;2022-08-07T05:35:06;2.10;;;0.80;;
6372;SDS011;3219;51.362;7.074;2022-08-07T05:37:34;1.65;;;0.60;;
6372;SDS011;3219;51.362;7.074;2022-08-07T05:40:01;2.22;;;0.75;;
6372;SDS011;3219;51.362;7.074;2022-08-07T05:42:29;6.65;;;0.70;;
6372;SDS011;3219;51.362;7.074;2022-08-07T05:44:56;3.33;;;0.70;;
6372;SDS011;3219;51.362;7.074;2022-08-07T05:47:24;1.90;;;0.73;;
6372;SDS011;3219;51.362;7.074;2022-08-07T05:49:51;1.20;;;0.50;;
6372;SDS011;3219;51.362;7.074;2022-08-07T05:52:20;1.30;;;0.50;;
6372;SDS011;3219;51.362;7.074;2022-08-07T05:54:47;1.15;;;0.45;;
6372;SDS011;3219;51.362;7.074;2022-08-07T05:57:14;1.75;;;0.50;;
6372;SDS011;3219;51.362;7.074;2022-08-07T05:59:42;2.17;;;0.47;;
6372;SDS011;3219;51.362;7.074;2022-08-07T06:02:12;1.48;;;0.45;;
6372;SDS011;3219;51.362;7.074;2022-08-07T06:04:40;0.35;;;0.35;;
6372;SDS011;3219;51.362;7.074;2022-08-07T06:07:08;2.22;;;0.55;;
6372;SDS011;3219;51.362;7.074;2022-08-07T06:09:36;3.17;;;0.47;;
6372;SDS011;3219;51.362;7.074;2022-08-07T06:12:04;2.22;;;0.55;;
6372;SDS011;3219;51.362;7.074;2022-08-07T06:14:31;1.92;;;0.63;;
6372;SDS011;3219;51.362;7.074;2022-08-07T06:16:58;1.48;;;0.60;;
6372;SDS011;3219;51.362;7.074;2022-08-07T06:19:26;3.72;;;0.50;;
6372;SDS011;3219;51.362;7.074;2022-08-07T06:21:54;1.25;;;0.40;;
6372;SDS011;3219;51.362;7.074;2022-08-07T06:24:21;1.73;;;0.52;;
6372;SDS011;3219;51.362;7.074;2022-08-07T06:26:49;2.75;;;0.60;;
6372;SDS011;3219;51.362;7.074;2022-08-07T06:29:16;1.35;;;0.50;;
6372;SDS011;3219;51.362;7.074;2022-08-07T06:31:43;1.73;;;0.30;;
6372;SDS011;3219;51.362;7.074;2022-08-07T06:34:10;0.73;;;0.20;;
6372;SDS011;3219;51.362;7.074;2022-08-07T06:36:37;4.55;;;0.60;;
6372;SDS011;3219;51.362;7.074;2022-08-07T06:39:04;1.40;;;0.60;;
6372;SDS011;3219;51.362;7.074;2022-08-07T06:41:33;4.13;;;0.68;;
6372;SDS011;3219;51.362;7.074;2022-08-07T06:44:02;6.18;;;0.52;;
6372;SDS011;3219;51.362;7.074;2022-08-07T06:46:31;1.05;;;0.47;;
6372;SDS011;3219;51.362;7.074;2022-08-07T06:48:58;2.17;;;0.50;;
6372;SDS011;3219;51.362;7.074;2022-08-07T06:51:26;1.45;;;0.40;;
6372;SDS011;3219;51.362;7.074;2022-08-07T06:53:55;1.10;;;0.50;;
6372;SDS011;3219;51.362;7.074;2022-08-07T06:56:27;4.90;;;0.50;;
6372;SDS011;3219;51.362;7.074;2022-08-07T06:59:06;1.30;;;0.50;;
6372;SDS011;3219;51.362;7.074;2022-08-07T07:01:33;2.33;;;0.68;;
6372;SDS011;3219;51.362;7.074;2022-08-07T07:04:01;0.52;;;0.30;;
6372;SDS011;3219;51.362;7.074;2022-08-07T07:06:29;3.13;;;0.50;;
6372;SDS011;3219;51.362;7.074;2022-08-07T07:11:38;0.85;;;0.50;;
6372;SDS011;3219;51.362;7.074;2022-08-07T07:14:07;0.65;;;0.38;;
6372;SDS011;3219;51.362;7.074;2022-08-07T07:16:37;0.90;;;0.40;;
6372;SDS011;3219;51.362;7.074;2022-08-07T07:19:05;4.28;;;0.40;;
6372;SDS011;3219;51.362;7.074;2022-08-07T07:21:34;1.75;;;0.45;;
6372;SDS011;3219;51.362;7.074;2022-08-07T07:24:04;3.97;;;0.47;;
6372;SDS011;3219;51.362;7.074;2022-08-07T07:26:32;1.20;;;0.60;;
6372;SDS011;3219;51.362;7.074;2022-08-07T07:29:02;2.17;;;0.40;;
6372;SDS011;3219;51.362;7.074;2022-08-07T07:31:33;0.75;;;0.40;;
6372;SDS011;3219;51.362;7.074;2022-08-07T07:34:03;0.60;;;0.30;;
6372;SDS011;3219;51.362;7.074;2022-08-07T07:36:32;1.33;;;0.52;;
6372;SDS011;3219;51.362;7.074;2022-08-07T07:38:59;1.67;;;0.80;;
6372;SDS011;3219;51.362;7.074;2022-08-07T07:41:28;1.33;;;0.50;;
6372;SDS011;3219;51.362;7.074;2022-08-07T07:43:55;1.02;;;0.35;;
6372;SDS011;3219;51.362;7.074;2022-08-07T07:46:23;0.73;;;0.43;;
6372;SDS011;3219;51.362;7.074;2022-08-07T07:48:52;0.57;;;0.40;;
6372;SDS011;3219;51.362;7.074;2022-08-07T07:51:21;1.20;;;0.50;;
6372;SDS011;3219;51.362;7.074;2022-08-07T07:53:48;1.40;;;0.65;;
6372;SDS011;3219;51.362;7.074;2022-08-07T07:56:16;0.85;;;0.50;;
6372;SDS011;3219;51.362;7.074;2022-08-07T07:58:43;0.80;;;0.47;;
6372;SDS011;3219;51.362;7.074;2022-08-07T08:01:12;1.65;;;0.45;;
6372;SDS011;3219;51.362;7.074;2022-08-07T08:03:40;2.72;;;0.50;;
6372;SDS011;3219;51.362;7.074;2022-08-07T08:06:08;0.82;;;0.50;;
6372;SDS011;3219;51.362;7.074;2022-08-07T08:08:36;1.88;;;0.50;;
6372;SDS011;3219;51.362;7.074;2022-08-07T08:11:03;0.88;;;0.40;;
6372;SDS011;3219;51.362;7.074;2022-08-07T08:13:31;1.38;;;0.40;;
6372;SDS011;3219;51.362;7.074;2022-08-07T08:16:00;1.35;;;0.60;;
6372;SDS011;3219;51.362;7.074;2022-08-07T08:18:27;1.98;;;0.40;;
6372;SDS011;3219;51.362;7.074;2022-08-07T08:20:55;2.85;;;0.47;;
6372;SDS011;3219;51.362;7.074;2022-08-07T08:23:25;1.33;;;0.45;;
6372;SDS011;3219;51.362;7.074;2022-08-07T08:26:11;1.65;;;0.60;;
6372;SDS011;3219;51.362;7.074;2022-08-07T08:28:57;2.92;;;0.60;;
6372;SDS011;3219;51.362;7.074;2022-08-07T08:31:26;0.52;;;0.32;;
6372;SDS011;3219;51.362;7.074;2022-08-07T08:36:23;0.82;;;0.50;;
6372;SDS011;3219;51.362;7.074;2022-08-07T08:38:53;3.40;;;0.60;;
6372;SDS011;3219;51.362;7.074;2022-08-07T08:41:20;2.70;;;1.15;;
6372;SDS011;3219;51.362;7.074;2022-08-07T08:43:50;0.88;;;0.40;;
6372;SDS011;3219;51.362;7.074;2022-08-07T08:48:50;2.40;;;0.60;;
6372;SDS011;3219;51.362;7.074;2022-08-07T08:51:22;2.03;;;0.70;;
6372;SDS011;3219;51.362;7.074;2022-08-07T08:53:53;2.08;;;0.50;;
6372;SDS011;3219;51.362;7.074;2022-08-07T08:56:23;0.70;;;0.35;;
6372;SDS011;3219;51.362;7.074;2022-08-07T08:58:51;5.38;;;0.60;;
6372;SDS011;3219;51.362;7.074;2022-08-07T09:01:23;2.80;;;0.40;;
6372;SDS011;3219;51.362;7.074;2022-08-07T09:03:54;1.52;;;0.50;;
6372;SDS011;3219;51.362;7.074;2022-08-07T09:06:25;1.38;;;0.55;;
6372;SDS011;3219;51.362;7.074;2022-08-07T09:08:58;2.50;;;0.60;;
6372;SDS011;3219;51.362;7.074;2022-08-07T09:11:29;1.45;;;0.45;;
6372;SDS011;3219;51.362;7.074;2022-08-07T09:14:03;1.40;;;0.40;;
6372;SDS011;3219;51.362;7.074;2022-08-07T09:19:05;1.23;;;0.47;;
6372;SDS011;3219;51.362;7.074;2022-08-07T09:21:34;1.17;;;0.50;;
6372;SDS011;3219;51.362;7.074;2022-08-07T09:24:15;1.80;;;0.43;;
6372;SDS011;3219;51.362;7.074;2022-08-07T09:26:49;1.40;;;0.60;;
6372;SDS011;3219;51.362;7.074;2022-08-07T09:29:21;2.67;;;0.52;;
6372;SDS011;3219;51.362;7.074;2022-08-07T09:31:54;1.58;;;0.70;;
6372;SDS011;3219;51.362;7.074;2022-08-07T09:34:23;1.02;;;0.60;;
6372;SDS011;3219;51.362;7.074;2022-08-07T09:36:54;0.82;;;0.57;;
6372;SDS011;3219;51.362;7.074;2022-08-07T09:39:26;1.75;;;0.50;;
6372;SDS011;3219;51.362;7.074;2022-08-07T09:42:00;2.55;;;0.40;;
6372;SDS011;3219;51.362;7.074;2022-08-07T09:46:59;0.98;;;0.50;;
6372;SDS011;3219;51.362;7.074;2022-08-07T09:49:33;0.68;;;0.40;;
6372;SDS011;3219;51.362;7.074;2022-08-07T09:52:04;1.95;;;0.50;;
6372;SDS011;3219;51.362;7.074;2022-08-07T09:54:35;1.88;;;0.40;;
6372;SDS011;3219;51.362;7.074;2022-08-07T10:00:03;1.92;;;0.60;;
6372;SDS011;3219;51.362;7.074;2022-08-07T10:02:41;2.45;;;0.40;;
6372;SDS011;3219;51.362;7.074;2022-08-07T10:05:24;1.80;;;0.63;;
6372;SDS011;3219;51.362;7.074;2022-08-07T10:07:57;1.73;;;0.82;;
6372;SDS011;3219;51.362;7.074;2022-08-07T10:10:32;1.77;;;0.55;;
6372;SDS011;3219;51.362;7.074;2022-08-07T10:13:07;0.60;;;0.50;;
6372;SDS011;3219;51.362;7.074;2022-08-07T10:15:44;1.17;;;0.47;;
6372;SDS011;3219;51.362;7.074;2022-08-07T10:21:08;3.00;;;0.50;;
6372;SDS011;3219;51.362;7.074;2022-08-07T10:23:54;2.40;;;0.40;;
6372;SDS011;3219;51.362;7.074;2022-08-07T10:26:31;0.77;;;0.40;;
6372;SDS011;3219;51.362;7.074;2022-08-07T10:29:05;0.75;;;0.57;;
6372;SDS011;3219;51.362;7.074;2022-08-07T10:31:40;1.73;;;0.63;;
6372;SDS011;3219;51.362;7.074;2022-08-07T10:34:16;3.97;;;0.47;;
6372;SDS011;3219;51.362;7.074;2022-08-07T10:36:51;3.65;;;0.45;;
6372;SDS011;3219;51.362;7.074;2022-08-07T10:39:25;0.80;;;0.52;;
6372;SDS011;3219;51.362;7.074;2022-08-07T10:42:00;4.20;;;0.80;;
6372;SDS011;3219;51.362;7.074;2022-08-07T10:44:33;3.22;;;0.68;;
6372;SDS011;3219;51.362;7.074;2022-08-07T10:47:10;1.70;;;0.60;;
6372;SDS011;3219;51.362;7.074;2022-08-07T10:49:40;0.90;;;0.50;;
6372;SDS011;3219;51.362;7.074;2022-08-07T10:54:39;1.20;;;0.60;;
6372;SDS011;3219;51.362;7.074;2022-08-07T10:57:09;1.02;;;0.50;;
6372;SDS011;3219;51.362;7.074;2022-08-07T10:59:46;2.45;;;0.47;;
6372;SDS011;3219;51.362;7.074;2022-08-07T11:02:17;1.38;;;0.50;;
6372;SDS011;3219;51.362;7.074;2022-08-07T11:04:51;1.05;;;0.60;;
6372;SDS011;3219;51.362;7.074;2022-08-07T11:07:24;3.25;;;0.65;;
6372;SDS011;3219;51.362;7.074;2022-08-07T11:09:57;1.48;;;0.50;;
6372;SDS011;3219;51.362;7.074;2022-08-07T11:12:27;1.70;;;0.70;;
6372;SDS011;3219;51.362;7.074;2022-08-07T11:14:59;3.28;;;0.60;;
6372;SDS011;3219;51.362;7.074;2022-08-07T11:17:28;0.65;;;0.55;;
6372;SDS011;3219;51.362;7.074;2022-08-07T11:19:57;1.00;;;0.40;;
6372;SDS011;3219;51.362;7.074;2022-08-07T11:22:26;2.10;;;0.60;;
6372;SDS011;3219;51.362;7.074;2022-08-07T11:24:57;3.97;;;0.77;;
6372;SDS011;3219;51.362;7.074;2022-08-07T11:27:29;4.37;;;0.60;;
6372;SDS011;3219;51.362;7.074;2022-08-07T11:30:00;2.35;;;0.50;;
6372;SDS011;3219;51.362;7.074;2022-08-07T11:32:29;1.08;;;0.50;;
6372;SDS011;3219;51.362;7.074;2022-08-07T11:35:01;2.45;;;0.70;;
6372;SDS011;3219;51.362;7.074;2022-08-07T11:37:33;1.73;;;0.50;;
6372;SDS011;3219;51.362;7.074;2022-08-07T11:40:09;0.93;;;0.55;;
6372;SDS011;3219;51.362;7.074;2022-08-07T11:42:39;1.73;;;0.60;;
6372;SDS011;3219;51.362;7.074;2022-08-07T11:47:57;2.40;;;0.52;;
6372;SDS011;3219;51.362;7.074;2022-08-07T11:50:35;0.90;;;0.60;;
6372;SDS011;3219;51.362;7.074;2022-08-07T11:53:09;1.88;;;0.77;;
6372;SDS011;3219;51.362;7.074;2022-08-07T11:55:44;1.33;;;0.40;;
6372;SDS011;3219;51.362;7.074;2022-08-07T11:58:15;1.92;;;0.40;;
6372;SDS011;3219;51.362;7.074;2022-08-07T12:00:49;1.90;;;0.70;;
6372;SDS011;3219;51.362;7.074;2022-08-07T12:03:24;2.05;;;0.40;;
6372;SDS011;3219;51.362;7.074;2022-08-07T12:05:57;1.05;;;0.57;;
6372;SDS011;3219;51.362;7.074;2022-08-07T12:08:32;2.00;;;0.60;;
6372;SDS011;3219;51.362;7.074;2022-08-07T12:11:02;1.25;;;0.65;;
6372;SDS011;3219;51.362;7.074;2022-08-07T12:13:35;2.03;;;0.55;;
6372;SDS011;3219;51.362;7.074;2022-08-07T12:16:07;0.63;;;0.50;;
6372;SDS011;3219;51.362;7.074;2022-08-07T12:18:40;1.20;;;0.50;;
6372;SDS011;3219;51.362;7.074;2022-08-07T12:21:13;3.60;;;0.60;;
6372;SDS011;3219;51.362;7.074;2022-08-07T12:23:43;1.58;;;0.60;;
6372;SDS011;3219;51.362;7.074;2022-08-07T12:26:13;0.47;;;0.38;;
6372;SDS011;3219;51.362;7.074;2022-08-07T12:28:46;0.65;;;0.40;;
6372;SDS011;3219;51.362;7.074;2022-08-07T12:31:16;1.70;;;0.60;;
6372;SDS011;3219;51.362;7.074;2022-08-07T12:33:45;1.20;;;0.60;;
6372;SDS011;3219;51.362;7.074;2022-08-07T12:36:13;2.63;;;0.65;;
6372;SDS011;3219;51.362;7.074;2022-08-07T12:38:41;0.47;;;0.40;;
6372;SDS011;3219;51.362;7.074;2022-08-07T12:41:09;0.80;;;0.50;;
6372;SDS011;3219;51.362;7.074;2022-08-07T12:43:37;4.10;;;0.60;;
6372;SDS011;3219;51.362;7.074;2022-08-07T12:46:12;1.95;;;0.50;;
6372;SDS011;3219;51.362;7.074;2022-08-07T12:48:44;0.30;;;0.30;;
6372;SDS011;3219;51.362;7.074;2022-08-07T12:51:14;2.35;;;0.60;;
6372;SDS011;3219;51.362;7.074;2022-08-07T12:53:42;2.83;;;0.70;;
6372;SDS011;3219;51.362;7.074;2022-08-07T12:56:11;2.00;;;0.65;;
6372;SDS011;3219;51.362;7.074;2022-08-07T12:58:44;3.45;;;0.73;;
6372;SDS011;3219;51.362;7.074;2022-08-07T13:01:18;1.17;;;0.40;;
6372;SDS011;3219;51.362;7.074;2022-08-07T13:03:51;2.33;;;0.43;;
6372;SDS011;3219;51.362;7.074;2022-08-07T13:06:25;1.75;;;0.50;;
6372;SDS011;3219;51.362;7.074;2022-08-07T13:08:58;2.28;;;0.50;;
6372;SDS011;3219;51.362;7.074;2022-08-07T13:11:33;3.83;;;0.50;;
6372;SDS011;3219;51.362;7.074;2022-08-07T13:14:05;0.40;;;0.40;;
6372;SDS011;3219;51.362;7.074;2022-08-07T13:16:36;1.10;;;0.73;;
6372;SDS011;3219;51.362;7.074;2022-08-07T13:19:08;0.77;;;0.50;;
6372;SDS011;3219;51.362;7.074;2022-08-07T13:21:39;1.63;;;0.80;;
6372;SDS011;3219;51.362;7.074;2022-08-07T13:24:10;1.50;;;0.50;;
6372;SDS011;3219;51.362;7.074;2022-08-07T13:26:45;1.25;;;0.50;;
6372;SDS011;3219;51.362;7.074;2022-08-07T13:29:15;2.67;;;0.60;;
6372;SDS011;3219;51.362;7.074;2022-08-07T13:31:49;1.63;;;0.70;;
6372;SDS011;3219;51.362;7.074;2022-08-07T13:34:20;1.35;;;0.60;;
6372;SDS011;3219;51.362;7.074;2022-08-07T13:36:50;0.65;;;0.40;;
6372;SDS011;3219;51.362;7.074;2022-08-07T13:39:20;2.15;;;0.50;;
6372;SDS011;3219;51.362;7.074;2022-08-07T13:41:52;4.15;;;0.60;;
6372;SDS011;3219;51.362;7.074;2022-08-07T13:44:21;2.85;;;0.80;;
6372;SDS011;3219;51.362;7.074;2022-08-07T13:46:51;0.90;;;0.55;;
6372;SDS011;3219;51.362;7.074;2022-08-07T13:49:21;0.65;;;0.38;;
6372;SDS011;3219;51.362;7.074;2022-08-07T13:51:48;1.63;;;0.50;;
6372;SDS011;3219;51.362;7.074;2022-08-07T13:54:16;2.47;;;0.65;;
6372;SDS011;3219;51.362;7.074;2022-08-07T13:56:45;2.35;;;0.60;;
6372;SDS011;3219;51.362;7.074;2022-08-07T13:59:14;2.08;;;0.63;;
6372;SDS011;3219;51.362;7.074;2022-08-07T14:01:44;0.73;;;0.55;;
6372;SDS011;3219;51.362;7.074;2022-08-07T14:04:16;1.05;;;0.55;;
6372;SDS011;3219;51.362;7.074;2022-08-07T14:06:44;0.82;;;0.50;;
6372;SDS011;3219;51.362;7.074;2022-08-07T14:09:14;1.50;;;0.60;;
6372;SDS011;3219;51.362;7.074;2022-08-07T14:11:43;1.88;;;0.43;;
6372;SDS011;3219;51.362;7.074;2022-08-07T14:14:10;1.10;;;0.50;;
6372;SDS011;3219;51.362;7.074;2022-08-07T14:16:41;1.38;;;0.60;;
6372;SDS011;3219;51.362;7.074;2022-08-07T14:19:10;1.33;;;0.68;;
6372;SDS011;3219;51.362;7.074;2022-08-07T14:21:42;1.65;;;0.70;;
6372;SDS011;3219;51.362;7.074;2022-08-07T14:24:11;1.40;;;0.60;;
6372;SDS011;3219;51.362;7.074;2022-08-07T14:26:41;2.55;;;0.80;;
6372;SDS011;3219;51.362;7.074;2022-08-07T14:29:11;2.67;;;0.80;;
6372;SDS011;3219;51.362;7.074;2022-08-07T14:31:38;1.17;;;0.50;;
6372;SDS011;3219;51.362;7.074;2022-08-07T14:34:05;1.33;;;0.57;;
6372;SDS011;3219;51.362;7.074;2022-08-07T14:36:33;4.03;;;0.47;;
6372;SDS011;3219;51.362;7.074;2022-08-07T14:39:02;1.23;;;0.45;;
6372;SDS011;3219;51.362;7.074;2022-08-07T14:41:29;4.10;;;0.90;;
6372;SDS011;3219;51.362;7.074;2022-08-07T14:43:57;0.85;;;0.55;;
6372;SDS011;3219;51.362;7.074;2022-08-07T14:46:25;2.38;;;0.60;;
6372;SDS011;3219;51.362;7.074;2022-08-07T14:48:54;2.00;;;0.60;;
6372;SDS011;3219;51.362;7.074;2022-08-07T14:51:22;1.55;;;0.63;;
6372;SDS011;3219;51.362;7.074;2022-08-07T14:53:52;2.90;;;0.70;;
6372;SDS011;3219;51.362;7.074;2022-08-07T14:56:21;0.73;;;0.60;;
6372;SDS011;3219;51.362;7.074;2022-08-07T14:58:50;2.00;;;0.75;;
6372;SDS011;3219;51.362;7.074;2022-08-07T15:01:18;4.32;;;0.55;;
6372;SDS011;3219;51.362;7.074;2022-08-07T15:03:45;2.65;;;0.45;;
6372;SDS011;3219;51.362;7.074;2022-08-07T15:06:13;1.63;;;0.60;;
6372;SDS011;3219;51.362;7.074;2022-08-07T15:08:41;4.32;;;0.88;;
6372;SDS011;3219;51.362;7.074;2022-08-07T15:11:14;0.88;;;0.57;;
6372;SDS011;3219;51.362;7.074;2022-08-07T15:13:47;1.15;;;0.50;;
6372;SDS011;3219;51.362;7.074;2022-08-07T15:16:14;1.87;;;0.60;;
6372;SDS011;3219;51.362;7.074;2022-08-07T15:18:43;0.77;;;0.47;;
6372;SDS011;3219;51.362;7.074;2022-08-07T15:21:11;1.27;;;0.63;;
6372;SDS011;3219;51.362;7.074;2022-08-07T15:23:39;1.50;;;0.68;;
6372;SDS011;3219;51.362;7.074;2022-08-07T15:26:08;1.60;;;0.70;;
6372;SDS011;3219;51.362;7.074;2022-08-07T15:28:35;1.85;;;0.57;;
6372;SDS011;3219;51.362;7.074;2022-08-07T15:31:07;4.35;;;0.70;;
6372;SDS011;3219;51.362;7.074;2022-08-07T15:33:37;0.82;;;0.60;;
6372;SDS011;3219;51.362;7.074;2022-08-07T15:36:05;5.35;;;0.52;;
6372;SDS011;3219;51.362;7.074;2022-08-07T15:38:33;1.58;;;0.60;;
6372;SDS011;3219;51.362;7.074;2022-08-07T15:41:03;3.33;;;0.60;;
6372;SDS011;3219;51.362;7.074;2022-08-07T15:43:32;0.80;;;0.50;;
6372;SDS011;3219;51.362;7.074;2022-08-07T15:46:13;3.30;;;0.77;;
6372;SDS011;3219;51.362;7.074;2022-08-07T15:48:42;0.30;;;0.30;;
6372;SDS011;3219;51.362;7.074;2022-08-07T15:51:10;1.58;;;0.55;;
6372;SDS011;3219;51.362;7.074;2022-08-07T15:53:41;3.00;;;0.70;;
6372;SDS011;3219;51.362;7.074;2022-08-07T15:56:09;2.80;;;0.50;;